Airfield :
LOGIN :

Register | Disclaimer

   EN    FR    IT 

 










Legend :    VFR   Marginal VFR   IFR   Intensive IFR   Very Intensive IFR
Visi :
Ceiling :
>= 8 km
>= 3000ft
5 to 8 km
1000 to 3000 ft
1500m to 5 km
500 to 1000 ft
800 to 1500m
200 to 500 ft
< 800m
< 200 ft
Symbols :   Thunderstorms  Fog  Heavy snow  Heavy precipitations  Wind > 20 kt
SIGMETs :     Misc.  Thunderstorms  Icing  Turbulence  Mountain Waves  Volcanic Ashes






- Airport Elevation : 49 ft
- IATA code : GLZ


EHGR - Gilze-Rijen Airbase

CURRENT METAR :
  • 170331Z AUTO 18009KT 140V220 9000 RA FEW009 FEW015CB SCT038 BKN048 10/09 Q0999 BLU

EXPIRED METARs :
  • 170330Z AUTO 18008KT 140V220 9999 -RADZ FEW009 FEW015CB SCT018 BKN045 10/09 Q0999 WHT
  • 170314Z AUTO 18007KT 140V200 9999 -RADZ FEW010 FEW015CB SCT033 BKN039 10/09 Q0999 BLU
  • 170312Z AUTO 18007KT 140V200 6000 -RADZ FEW015CB BKN035 BKN039 10/09 Q0999 WHT
  • 170255Z AUTO 19007KT 140V210 9999 -RA FEW015CB SCT026 BKN030 BKN036 10/09 Q0999 RERA BLU
  • 170225Z AUTO 19006KT 140V220 9999 BKN012 BKN014 FEW015CB 10/09 Q0999 GRN
  • 170209Z AUTO 19006KT 150V240 9999 FEW015CB SCT048 BKN053 10/09 Q0999 BLU
  • 170155Z AUTO 20007KT 150V240 9999 FEW021 BKN048 BKN054 10/09 Q0999 BLU
  • 170125Z AUTO 20006KT 150V270 9999 SCT043 OVC059 10/09 Q0999 BLU
  • 170055Z AUTO 19006KT 140V220 9999 SCT036 OVC047 10/09 Q0999 BLU

Expired Forecast.



MET'MAP, your aeronautical weather chart ! - Copyright ORBIFLY December 2007 - Disclaimer

ORBIFLY MET'MAP TEAM :

Programming & Development : Alexandra Zaïnal
Concept & original design : Baudouin d'Aumeries
Assistance for programming : Marc-Olivier Méhu
Technical & hardware support : Manuel Goepfert

Contact : metmap@orbifly.com




SOURCES & CREDITS :

   NOAA